WetterOnline ( https://www.wetteronline.de )

Wetter aktuell Schkopau

Aktuelles Wetter: Leipzig/Halle (136m)

6-stündlich | Neueste Meldungen
Ortszeit Temperatur Wetter
Mi, 24.04. 14:00 21.5° C leicht bewölkt
Mi, 24.04. 8:00 11.2° C leicht bewölkt
Mi, 24.04. 2:00 11.1° C wolkig
Di, 23.04. 20:00 15.3° C leicht bewölkt
Di, 23.04. 14:00 18.2° C wolkig
Di, 23.04. 8:00 9.8° C wolkenlos
Di, 23.04. 2:00 9.5° C wolkenlos
Mo, 22.04. 20:00 13.6° C fast wolkenlos
Ortszeit Temperatur Wetter
Mi, 24.04. 17:30 23.7° C wolkenlos
Mi, 24.04. 17:20 23.7° C wolkenlos
Mi, 24.04. 17:10 23.4° C wolkenlos
Mi, 24.04. 17:00 23.7° C leicht bewölkt
Mi, 24.04. 16:50 23.7° C wolkenlos
Mi, 24.04. 16:40 23.9° C fast wolkenlos
Mi, 24.04. 16:30 23.7° C fast wolkenlos
Mi, 24.04. 16:00 23.6° C leicht bewölkt
Mi, 24.04. 15:30 23.3° C wolkenlos
Mi, 24.04. 15:00 22.5° C leicht bewölkt
Mi, 24.04. 14:30 22.4° C fast wolkenlos
Ortszeit Relative Feuchte Sichtweite
Mi, 24.04. 14:00 43% 45 km
Mi, 24.04. 8:00 80% 20 km
Mi, 24.04. 2:00 76% 35 km
Di, 23.04. 20:00 52% 25 km
Di, 23.04. 14:00 45% 35 km
Di, 23.04. 8:00 61% 40 km
Di, 23.04. 2:00 72% 30 km
Mo, 22.04. 20:00 39% 50 km
Ortszeit Relative Feuchte Sichtweite
Mi, 24.04. 17:30 40% 35 km
Mi, 24.04. 17:20 40% -
Mi, 24.04. 17:10 39% -
Mi, 24.04. 17:00 39% 60 km
Mi, 24.04. 16:50 39% -
Mi, 24.04. 16:40 39% -
Mi, 24.04. 16:30 39% 40 km
Mi, 24.04. 16:00 38% 50 km
Mi, 24.04. 15:30 38% 45 km
Mi, 24.04. 15:00 41% 45 km
Mi, 24.04. 14:30 42% 30 km
Ortszeit Niederschlagsmenge Niederschlagsart
Mi, 24.04. 14:00 0.0 l/m2 in 6 Std. -
Mi, 24.04. 8:00 0.0 l/m2 in 12 Std. -
Mi, 24.04. 2:00 0.0 l/m2 in 6 Std. -
Di, 23.04. 20:00 0.0 l/m2 in 12 Std. -
Di, 23.04. 14:00 0.0 l/m2 in 6 Std. -
Di, 23.04. 8:00 0.0 l/m2 in 12 Std. -
Di, 23.04. 2:00 0.0 l/m2 in 6 Std. -
Mo, 22.04. 20:00 0.0 l/m2 in 12 Std. -
Ortszeit Niederschlagsmenge Niederschlagsart
Mi, 24.04. 17:30 0.0 l/m2 in 1 Std. -
Mi, 24.04. 17:20 keine Meldung -
Mi, 24.04. 17:10 keine Meldung -
Mi, 24.04. 17:00 0.0 l/m2 in 1 Std. -
Mi, 24.04. 16:50 keine Meldung -
Mi, 24.04. 16:40 keine Meldung -
Mi, 24.04. 16:30 0.0 l/m2 in 1 Std. -
Mi, 24.04. 16:00 0.0 l/m2 in 1 Std. -
Mi, 24.04. 15:30 0.0 l/m2 in 1 Std. -
Mi, 24.04. 15:00 0.0 l/m2 in 1 Std. -
Mi, 24.04. 14:30 0.0 l/m2 in 1 Std. -
Ortszeit Stärke Spitze Richtung
km/h Bft. km/h Grad Sektor
Mi, 24.04. 14:00 22 4 32 120° SO
Mi, 24.04. 8:00 13 3 31 100° O
Mi, 24.04. 2:00 20 4 48 110° O
Di, 23.04. 20:00 40 6 68 120° SO
Di, 23.04. 14:00 44 6 70 110° O
Di, 23.04. 8:00 30 5 48 80° O
Di, 23.04. 2:00 22 4 58 90° O
Mo, 22.04. 20:00 31 5 56 90° O
Ortszeit Stärke Spitze Richtung
km/h Bft. km/h Grad Sektor
Mi, 24.04. 17:30 30 5 37 110° O
Mi, 24.04. 17:20 30 5 - 110° O
Mi, 24.04. 17:10 25 4 - 120° SO
Mi, 24.04. 17:00 28 4 35 110° O
Mi, 24.04. 16:50 28 4 - 110° O
Mi, 24.04. 16:40 26 4 - 110° O
Mi, 24.04. 16:30 25 4 32 110° O
Mi, 24.04. 16:00 22 4 33 110° O
Mi, 24.04. 15:30 19 3 33 130° SO
Mi, 24.04. 15:00 22 4 43 120° SO
Mi, 24.04. 14:30 24 4 43 110° O
Ortszeit Untergrenze Bedeckung Gattung
total tief tief mittel hoch
Mi, 24.04. 14:00 7800 m 6/8 0/8 - - Ci
Mi, 24.04. 8:00 9000 m 2/8 0/8 - - Cs
Mi, 24.04. 2:00 3300 m 7/8 7/8 - As -
Di, 23.04. 20:00 3300 m 4/8 2/8 - Ac Ci
Di, 23.04. 14:00 1500 m 6/8 6/8 Sc - -
Di, 23.04. 8:00 - 0/8 0/8 - - -
Di, 23.04. 2:00 - 0/8 0/8 - - -
Mo, 22.04. 20:00 9000 m 1/8 0/8 - - Ci
Ortszeit Bedeckungsgrad in Achtel und Wolkenuntergrenze
Mi, 24.04. 17:30 keine Wolken
Mi, 24.04. 17:20 keine Wolken
Mi, 24.04. 17:10 keine Wolken
Mi, 24.04. 17:00 3(9000m)
Mi, 24.04. 16:50 keine Wolken
Mi, 24.04. 16:40 1(9000m)
Mi, 24.04. 16:30 1(9000m)
Mi, 24.04. 16:00 3(9000m)
Mi, 24.04. 15:30 keine Wolken
Mi, 24.04. 15:00 3(9000m)
Mi, 24.04. 14:30 1(9000m)
Ortszeit Luftdruck NN (hPa) Tendenz (hPa in 3 Std.)
Mi, 24.04. 14:00 1005 - 0,2
Mi, 24.04. 8:00 1005 + 0,8
Mi, 24.04. 2:00 1005 + 0,1
Di, 23.04. 20:00 1004 0,0
Di, 23.04. 14:00 1005 - 1,1
Di, 23.04. 8:00 1008 - 1,4
Di, 23.04. 2:00 1011 - 1,6
Mo, 22.04. 20:00 1013 - 0,3
Ortszeit Luftdruck NN (hPa) Tendenz (hPa in 3 Std.)
Mi, 24.04. 17:30 1004 - 0,8
Mi, 24.04. 17:20 1004 keine Meldung
Mi, 24.04. 17:10 1004 keine Meldung
Mi, 24.04. 17:00 1004 - 0,9
Mi, 24.04. 16:50 1004 keine Meldung
Mi, 24.04. 16:40 1004 keine Meldung
Mi, 24.04. 16:30 1004 - 1,2
Mi, 24.04. 16:00 1004 - 0,9
Mi, 24.04. 15:30 1004 - 0,7
Mi, 24.04. 15:00 1005 - 0,6
Mi, 24.04. 14:30 1005 - 0,4
Ortszeit Schneehöhe (cm)
Mi, 24.04. 14:00 0
Mi, 24.04. 8:00 0
Mi, 24.04. 2:00 0
Di, 23.04. 20:00 0
Di, 23.04. 14:00 0
Di, 23.04. 8:00 0
Di, 23.04. 2:00 0
Mo, 22.04. 20:00 0
Ortszeit Schneehöhe (cm)
Mi, 24.04. 17:30 0
Mi, 24.04. 17:20 0
Mi, 24.04. 17:10 0
Mi, 24.04. 17:00 0
Mi, 24.04. 16:50 0
Mi, 24.04. 16:40 0
Mi, 24.04. 16:30 0
Mi, 24.04. 16:00 0
Mi, 24.04. 15:30 0
Mi, 24.04. 15:00 0
Mi, 24.04. 14:30 0
Link zu dieser Seite / Seite empfehlen

Das Wetter in ...